Baconton, Georgia
Current Conditions -  °F | °C
As of 7:53 PM on Friday 19 Dec 2014 (Local Time) from KABY Reporting Station
Overcast Overcast  
Wind Chill: 52°   Ceiling: 11000
Heat Index: 52°   Visibility: 10mi
Dew Point: 42°   Wind: 3mph
Humidity: 69%   Direction: 330°NNW
Pressure: 30.16"   Gusts: NA
Location:  31.38°N, 84.16°W
Report Text: KABY 200053Z 33003KT 10SM OVC110 11/06 A3016 RMK AO2 SLP214 T01110056
Loading
Personal Weather Stations






























Interactive Weather Map New forecast layout! Learn more

10-Day Weather Forecast

Advertisements
Track Severe Weather on mobile